createdAt,value
2023-05-14T00:01:58.595Z,6.70
2023-05-14T00:04:26.016Z,6.97
2023-05-14T00:06:53.640Z,7.03
2023-05-14T00:09:21.144Z,6.70
2023-05-14T00:11:48.620Z,6.38
2023-05-14T00:14:16.257Z,6.30
2023-05-14T00:16:43.816Z,6.75
2023-05-14T00:19:11.161Z,6.85
2023-05-14T00:21:39.248Z,6.75
2023-05-14T00:24:06.804Z,6.28
2023-05-14T00:26:34.367Z,6.25
2023-05-14T00:29:01.621Z,6.82
2023-05-14T00:31:29.221Z,7.13
2023-05-14T00:33:56.521Z,6.40
2023-05-14T00:36:24.217Z,6.00
2023-05-14T00:38:51.528Z,6.28
2023-05-14T00:41:19.091Z,6.50
2023-05-14T00:43:46.710Z,6.55
2023-05-14T00:46:14.910Z,7.13
2023-05-14T00:48:42.312Z,6.22
2023-05-14T00:51:09.928Z,6.18
2023-05-14T00:53:37.756Z,7.07
2023-05-14T00:56:06.010Z,6.90
2023-05-14T00:58:33.290Z,6.32
2023-05-14T01:01:01.043Z,6.60
2023-05-14T01:03:30.647Z,6.60
2023-05-14T01:06:13.476Z,6.53
2023-05-14T01:08:46.657Z,6.40
2023-05-14T01:11:36.347Z,6.38
2023-05-14T01:14:23.137Z,6.95
2023-05-14T01:16:56.666Z,6.43
2023-05-14T01:19:42.534Z,6.70
2023-05-14T01:22:11.272Z,6.25
2023-05-14T01:24:39.542Z,6.55
2023-05-14T01:27:18.505Z,6.30
2023-05-14T01:29:53.288Z,6.50
2023-05-14T01:32:26.626Z,6.15
2023-05-14T01:34:57.152Z,6.05
2023-05-14T01:37:27.093Z,6.47
2023-05-14T01:39:56.436Z,6.53
2023-05-14T01:42:24.155Z,6.95
2023-05-14T01:44:51.649Z,6.88
2023-05-14T01:47:19.656Z,6.32
2023-05-14T01:49:46.949Z,6.05
2023-05-14T01:52:14.462Z,6.18
2023-05-14T01:54:41.871Z,6.72
2023-05-14T01:57:09.390Z,7.18
2023-05-14T01:59:36.713Z,6.22
2023-05-14T02:02:04.576Z,7.05
2023-05-14T02:04:32.226Z,6.78
2023-05-14T02:06:59.768Z,6.30
2023-05-14T02:09:27.118Z,6.90
2023-05-14T02:11:55.310Z,6.45
2023-05-14T02:14:22.662Z,6.30
2023-05-14T02:16:51.361Z,7.25
2023-05-14T02:19:18.849Z,6.85
2023-05-14T02:21:47.112Z,7.20
2023-05-14T02:24:14.443Z,6.10
2023-05-14T02:26:42.328Z,6.93
2023-05-14T02:29:09.894Z,7.10
2023-05-14T02:31:37.884Z,6.43
2023-05-14T02:34:06.609Z,6.45
2023-05-14T02:36:34.791Z,6.85
2023-05-14T02:39:02.165Z,7.00
2023-05-14T02:41:29.876Z,6.50
2023-05-14T02:43:57.136Z,6.38
2023-05-14T02:46:24.902Z,7.10
2023-05-14T02:48:52.367Z,6.97
2023-05-14T02:51:21.069Z,6.47
2023-05-14T02:53:48.571Z,6.53
2023-05-14T02:56:16.491Z,6.72
2023-05-14T02:58:43.779Z,6.60
2023-05-14T03:01:11.376Z,6.90
2023-05-14T03:03:39.903Z,6.47
2023-05-14T03:06:08.047Z,6.80
2023-05-14T03:08:35.418Z,6.72
2023-05-14T03:11:03.321Z,6.70
2023-05-14T03:13:30.788Z,6.05
2023-05-14T03:15:58.321Z,6.50
2023-05-14T03:18:28.210Z,6.60
2023-05-14T03:20:55.814Z,6.28
2023-05-14T03:23:23.243Z,6.70
2023-05-14T03:25:51.014Z,6.53
2023-05-14T03:28:18.340Z,6.72
2023-05-14T03:30:46.089Z,6.35
2023-05-14T03:33:13.515Z,6.30
2023-05-14T03:35:41.088Z,6.30
2023-05-14T03:38:08.580Z,6.43
2023-05-14T03:40:36.137Z,6.80
2023-05-14T03:43:03.472Z,6.20
2023-05-14T03:45:32.148Z,6.05
2023-05-14T03:47:59.651Z,6.32
2023-05-14T03:50:27.584Z,6.20
2023-05-14T03:52:55.099Z,6.15
2023-05-14T03:55:22.758Z,5.82
2023-05-14T03:57:50.318Z,5.88
2023-05-14T04:00:18.080Z,6.00
2023-05-14T04:02:45.536Z,5.88
2023-05-14T04:05:13.143Z,5.65
2023-05-14T04:07:40.598Z,6.05
2023-05-14T04:10:08.716Z,5.80
2023-05-14T04:12:36.054Z,5.68
2023-05-14T04:15:03.994Z,5.53
2023-05-14T04:17:31.299Z,5.68
2023-05-14T04:19:58.878Z,5.93
2023-05-14T04:22:26.129Z,6.00
2023-05-14T04:24:53.690Z,5.38
2023-05-14T04:27:21.585Z,5.60
2023-05-14T04:29:50.752Z,5.47
2023-05-14T04:32:18.285Z,5.50
2023-05-14T04:34:47.215Z,5.45
2023-05-14T04:37:14.456Z,5.45
2023-05-14T04:39:42.450Z,5.10
2023-05-14T04:42:09.864Z,5.35
2023-05-14T04:44:40.524Z,5.80
2023-05-14T04:47:07.899Z,5.30
2023-05-14T04:49:35.589Z,5.70
2023-05-14T04:52:02.941Z,5.40
2023-05-14T04:54:30.410Z,5.57
2023-05-14T04:56:57.878Z,5.30
2023-05-14T04:59:26.020Z,5.40
2023-05-14T05:01:53.374Z,6.25
2023-05-14T05:04:21.036Z,5.15
2023-05-14T05:06:48.322Z,4.90
2023-05-14T05:09:17.626Z,5.60
2023-05-14T05:11:44.966Z,5.10
2023-05-14T05:14:12.518Z,5.07
2023-05-14T05:16:39.879Z,4.90
2023-05-14T05:19:07.394Z,5.13
2023-05-14T05:21:35.185Z,5.15
2023-05-14T05:24:02.815Z,4.95
2023-05-14T05:26:30.197Z,5.65
2023-05-14T05:28:57.714Z,5.00
2023-05-14T05:31:25.193Z,4.80
2023-05-14T05:33:52.847Z,5.05
2023-05-14T05:36:20.188Z,4.85
2023-05-14T05:38:47.936Z,4.90
2023-05-14T05:41:15.395Z,5.10
2023-05-14T05:43:42.956Z,5.20
2023-05-14T05:46:10.455Z,5.10
2023-05-14T05:48:37.985Z,4.72
2023-05-14T05:51:05.635Z,5.10
2023-05-14T05:53:33.221Z,4.80
2023-05-14T05:56:00.541Z,4.78
2023-05-14T05:58:28.093Z,4.68
2023-05-14T06:00:57.565Z,3.90
2023-05-14T06:03:25.464Z,4.50
2023-05-14T06:05:52.984Z,4.72
2023-05-14T06:08:20.770Z,4.72
2023-05-14T06:10:48.069Z,4.07
2023-05-14T06:13:15.779Z,4.57
2023-05-14T06:15:43.174Z,4.57
2023-05-14T06:18:10.730Z,4.80
2023-05-14T06:20:38.323Z,4.30
2023-05-14T06:23:06.062Z,4.05
2023-05-14T06:25:33.640Z,4.00
2023-05-14T06:28:01.529Z,4.20
2023-05-14T06:30:28.922Z,4.00
2023-05-14T06:32:56.774Z,4.32
2023-05-14T06:35:24.085Z,4.45
2023-05-14T06:37:51.899Z,4.00
2023-05-14T06:40:20.943Z,3.88
2023-05-14T06:42:48.918Z,4.05
2023-05-14T06:45:16.264Z,4.03
2023-05-14T06:47:43.842Z,3.90
2023-05-14T06:50:11.277Z,3.72
2023-05-14T06:52:39.177Z,3.92
2023-05-14T06:55:06.992Z,3.70
2023-05-14T06:57:34.682Z,3.38
2023-05-14T07:00:03.635Z,3.83
2023-05-14T07:02:31.570Z,3.55
2023-05-14T07:04:59.053Z,3.67
2023-05-14T07:07:26.620Z,3.28
2023-05-14T07:09:54.007Z,3.70
2023-05-14T07:12:21.519Z,3.20
2023-05-14T07:14:48.975Z,3.70
2023-05-14T07:17:16.690Z,3.38
2023-05-14T07:19:44.326Z,3.42
2023-05-14T07:22:11.891Z,3.60
2023-05-14T07:24:39.267Z,3.25
2023-05-14T07:27:06.900Z,2.92
2023-05-14T07:29:35.068Z,2.95
2023-05-14T07:32:04.792Z,3.05
2023-05-14T07:34:32.467Z,3.22
2023-05-14T07:37:00.818Z,3.05
2023-05-14T07:39:28.239Z,2.63
2023-05-14T07:41:55.873Z,2.58
2023-05-14T07:44:23.160Z,2.85
2023-05-14T07:46:50.724Z,2.92
2023-05-14T07:49:18.779Z,2.72
2023-05-14T07:51:46.385Z,2.95
2023-05-14T07:54:13.646Z,2.90
2023-05-14T07:56:41.317Z,2.90
2023-05-14T07:59:08.605Z,2.58
2023-05-14T08:01:39.040Z,2.47
2023-05-14T08:04:06.891Z,2.80
2023-05-14T08:06:34.654Z,2.60
2023-05-14T08:09:01.920Z,2.97
2023-05-14T08:11:29.462Z,2.92
2023-05-14T08:13:57.195Z,2.90
2023-05-14T08:16:26.131Z,2.90
2023-05-14T08:18:53.469Z,2.60
2023-05-14T08:21:21.122Z,2.67
2023-05-14T08:23:48.428Z,2.67
2023-05-14T08:26:16.049Z,2.58
2023-05-14T08:28:43.350Z,2.42
2023-05-14T08:31:11.350Z,2.80
2023-05-14T08:33:39.107Z,2.28
2023-05-14T08:36:07.393Z,2.72
2023-05-14T08:38:34.820Z,2.03
2023-05-14T08:41:05.838Z,2.55
2023-05-14T08:44:12.560Z,2.50
2023-05-14T08:46:41.032Z,2.33
2023-05-14T08:49:47.520Z,2.50
2023-05-14T08:52:17.963Z,2.80
2023-05-14T08:54:48.123Z,2.10
2023-05-14T08:57:18.003Z,2.50
2023-05-14T08:59:45.651Z,2.22
2023-05-14T09:02:15.206Z,2.60
2023-05-14T09:04:42.874Z,2.65
2023-05-14T09:07:11.377Z,2.80
2023-05-14T09:09:38.810Z,2.72
2023-05-14T09:12:06.791Z,2.22
2023-05-14T09:14:34.078Z,2.25
2023-05-14T09:17:02.395Z,2.65
2023-05-14T09:19:29.711Z,2.50
2023-05-14T09:21:59.176Z,2.30
2023-05-14T09:24:30.773Z,2.80
2023-05-14T09:26:58.935Z,2.90
2023-05-14T09:29:28.462Z,2.75
2023-05-14T09:31:57.400Z,2.70
2023-05-14T09:34:24.831Z,2.25
2023-05-14T09:36:57.868Z,2.33
2023-05-14T09:39:26.340Z,2.70
2023-05-14T09:41:54.318Z,2.45
2023-05-14T09:44:22.753Z,2.50
2023-05-14T09:46:51.236Z,2.80
2023-05-14T09:49:18.876Z,2.53
2023-05-14T09:51:46.609Z,2.70
2023-05-14T09:54:14.795Z,2.40
2023-05-14T09:56:43.444Z,2.55
2023-05-14T09:59:11.188Z,3.00
2023-05-14T10:01:42.375Z,2.40
2023-05-14T10:04:10.952Z,2.72
2023-05-14T10:06:40.097Z,2.47
2023-05-14T10:09:13.340Z,2.60
2023-05-14T10:11:44.519Z,2.70
2023-05-14T10:14:27.088Z,2.75
2023-05-14T10:16:58.721Z,2.65
2023-05-14T10:19:26.683Z,2.70
2023-05-14T10:22:04.208Z,2.42
2023-05-14T10:24:32.400Z,2.55
2023-05-14T10:27:00.659Z,2.22
2023-05-14T10:29:35.347Z,2.50
2023-05-14T10:34:43.844Z,2.20
2023-05-14T10:37:14.059Z,2.38
2023-05-14T10:39:44.350Z,2.20
2023-05-14T10:42:16.346Z,2.72
2023-05-14T10:44:55.922Z,2.50
2023-05-14T10:47:23.913Z,2.38
2023-05-14T10:49:55.192Z,2.50
2023-05-14T10:52:25.566Z,2.50
2023-05-14T10:54:54.942Z,2.22
2023-05-14T10:57:24.944Z,2.40
2023-05-14T10:59:55.336Z,2.13
2023-05-14T11:02:33.602Z,2.20
2023-05-14T11:05:09.243Z,2.03
2023-05-14T11:07:43.693Z,2.20
2023-05-14T11:10:13.572Z,2.20
2023-05-14T11:12:43.244Z,2.78
2023-05-14T11:15:12.858Z,2.22
2023-05-14T11:17:42.243Z,2.35
2023-05-14T11:20:11.152Z,2.10
2023-05-14T11:22:40.170Z,2.08
2023-05-14T11:25:08.806Z,2.35
2023-05-14T11:27:38.362Z,2.42
2023-05-14T11:30:12.313Z,2.10
2023-05-14T11:32:40.181Z,2.50
2023-05-14T11:35:08.354Z,2.58
2023-05-14T11:37:35.719Z,1.92
2023-05-14T11:40:09.785Z,2.15
2023-05-14T11:42:37.501Z,2.10
2023-05-14T11:45:05.880Z,2.20
2023-05-14T11:47:33.150Z,2.33
2023-05-14T11:50:01.088Z,2.20
2023-05-14T11:52:28.380Z,1.92
2023-05-14T11:54:56.027Z,2.10
2023-05-14T11:57:23.456Z,2.33
2023-05-14T11:59:58.859Z,2.15
2023-05-14T12:02:29.178Z,2.20
2023-05-14T12:04:57.559Z,2.30
2023-05-14T12:07:29.160Z,2.25
2023-05-14T12:10:01.558Z,2.20
2023-05-14T12:12:35.665Z,2.40
2023-05-14T12:15:11.400Z,2.08
2023-05-14T12:17:39.515Z,2.45
2023-05-14T12:20:12.243Z,1.98
2023-05-14T12:22:42.314Z,2.00
2023-05-14T12:25:13.831Z,2.20
2023-05-14T12:27:41.391Z,2.20
2023-05-14T12:32:41.158Z,1.98
2023-05-14T12:35:10.135Z,2.00
2023-05-14T12:37:39.787Z,1.90
2023-05-14T12:40:10.669Z,1.80
2023-05-14T12:42:37.953Z,1.75
2023-05-14T12:45:07.988Z,1.90
2023-05-14T12:47:49.111Z,1.90
2023-05-14T12:50:16.678Z,1.73
2023-05-14T12:52:44.011Z,1.80
2023-05-14T12:55:11.485Z,1.88
2023-05-14T12:57:39.610Z,1.55
2023-05-14T13:00:12.975Z,1.95
2023-05-14T13:02:42.609Z,1.88
2023-05-14T13:05:12.335Z,1.90
2023-05-14T13:07:39.715Z,1.67
2023-05-14T13:10:08.119Z,1.63
2023-05-14T13:12:35.473Z,1.70
2023-05-14T13:15:03.682Z,1.70
2023-05-14T13:17:31.057Z,1.70
2023-05-14T13:19:58.645Z,1.70
2023-05-14T13:22:25.933Z,2.00
2023-05-14T13:24:53.483Z,1.73
2023-05-14T13:27:20.744Z,1.58
2023-05-14T13:29:48.299Z,1.75
2023-05-14T13:32:15.642Z,1.70
2023-05-14T13:34:44.075Z,1.85
2023-05-14T13:37:11.513Z,1.70
2023-05-14T13:39:39.817Z,1.75
2023-05-14T13:42:08.398Z,1.70
2023-05-14T13:44:36.194Z,1.90
2023-05-14T13:47:03.874Z,1.83
2023-05-14T13:49:31.358Z,1.70
2023-05-14T13:51:58.789Z,1.80
2023-05-14T13:54:26.357Z,1.88
2023-05-14T13:56:53.588Z,1.60
2023-05-14T13:59:21.176Z,1.80
2023-05-14T14:01:49.813Z,1.55
2023-05-14T14:04:17.714Z,1.60
2023-05-14T14:06:45.331Z,1.90
2023-05-14T14:09:13.783Z,1.73
2023-05-14T14:11:41.275Z,1.55
2023-05-14T14:14:08.836Z,1.80
2023-05-14T14:16:36.319Z,1.75
2023-05-14T14:19:03.969Z,1.60
2023-05-14T14:21:31.787Z,1.55
2023-05-14T14:23:59.437Z,1.80
2023-05-14T14:26:28.303Z,1.67
2023-05-14T14:28:55.818Z,1.40
2023-05-14T14:31:23.970Z,2.05
2023-05-14T14:33:52.196Z,1.77
2023-05-14T14:36:19.408Z,1.80
2023-05-14T14:38:46.903Z,1.50
2023-05-14T14:41:14.219Z,1.60
2023-05-14T14:43:42.147Z,1.70
2023-05-14T14:46:09.771Z,1.80
2023-05-14T14:48:37.784Z,1.55
2023-05-14T14:51:06.903Z,1.65
2023-05-14T14:53:36.208Z,1.60
2023-05-14T14:56:04.291Z,1.70
2023-05-14T14:58:32.107Z,1.45
2023-05-14T15:01:01.314Z,1.60
2023-05-14T15:03:29.312Z,2.05
2023-05-14T15:05:56.760Z,1.85
2023-05-14T15:08:28.635Z,1.80
2023-05-14T15:10:56.556Z,1.60
2023-05-14T15:13:25.064Z,1.60
2023-05-14T15:15:55.082Z,1.50
2023-05-14T15:18:22.621Z,1.50
2023-05-14T15:20:49.984Z,1.98
2023-05-14T15:23:17.618Z,1.50
2023-05-14T15:25:45.376Z,1.65
2023-05-14T15:28:12.921Z,1.50
2023-05-14T15:30:40.151Z,1.30
2023-05-14T15:33:08.705Z,1.52
2023-05-14T15:35:36.566Z,1.50
2023-05-14T15:38:04.275Z,1.70
2023-05-14T15:40:33.057Z,1.60
2023-05-14T15:43:00.733Z,1.70
2023-05-14T15:45:28.317Z,1.60
2023-05-14T15:47:56.068Z,1.70
2023-05-14T15:50:23.716Z,1.50
2023-05-14T15:52:51.470Z,1.60
2023-05-14T15:55:18.945Z,1.67
2023-05-14T15:57:46.513Z,1.60
2023-05-14T16:00:14.410Z,1.40
2023-05-14T16:02:45.087Z,1.52
2023-05-14T16:05:13.843Z,1.40
2023-05-14T16:07:42.765Z,1.70
2023-05-14T16:10:10.408Z,1.50
2023-05-14T16:12:37.990Z,1.60
2023-05-14T16:15:07.210Z,1.65
2023-05-14T16:17:35.071Z,1.35
2023-05-14T16:20:04.705Z,1.48
2023-05-14T16:22:36.170Z,1.40
2023-05-14T16:25:04.929Z,1.55
2023-05-14T16:27:32.669Z,1.55
2023-05-14T16:30:00.227Z,1.38
2023-05-14T16:32:28.004Z,1.33
2023-05-14T16:34:56.527Z,1.60
2023-05-14T16:37:24.256Z,1.60
2023-05-14T16:39:51.697Z,1.48
2023-05-14T16:42:19.218Z,1.30
2023-05-14T16:44:46.491Z,1.55
2023-05-14T16:47:14.031Z,1.50
2023-05-14T16:49:41.326Z,1.75
2023-05-14T16:52:08.804Z,1.80
2023-05-14T16:54:36.640Z,1.80
2023-05-14T16:57:04.927Z,1.60
2023-05-14T16:59:32.187Z,1.70
2023-05-14T17:01:59.835Z,1.88
2023-05-14T17:04:27.229Z,1.52
2023-05-14T17:06:57.185Z,1.60
2023-05-14T17:09:24.732Z,1.90
2023-05-14T17:11:52.262Z,1.52
2023-05-14T17:14:19.938Z,1.60
2023-05-14T17:16:47.545Z,1.60
2023-05-14T17:19:15.490Z,1.40
2023-05-14T17:21:43.073Z,1.77
2023-05-14T17:24:10.348Z,1.63
2023-05-14T17:26:37.969Z,1.58
2023-05-14T17:29:05.488Z,1.65
2023-05-14T17:31:33.056Z,1.38
2023-05-14T17:34:00.736Z,1.83
2023-05-14T17:36:28.677Z,1.70
2023-05-14T17:38:55.953Z,1.70
2023-05-14T17:41:23.557Z,1.70
2023-05-14T17:43:52.474Z,1.70
2023-05-14T17:46:21.276Z,1.65
2023-05-14T17:48:48.609Z,1.55
2023-05-14T17:51:16.345Z,1.80
2023-05-14T17:53:43.601Z,1.48
2023-05-14T17:56:11.315Z,1.50
2023-05-14T17:58:38.618Z,1.70
2023-05-14T18:01:06.551Z,1.90
2023-05-14T18:03:34.229Z,1.45
2023-05-14T18:06:01.816Z,1.60
2023-05-14T18:08:29.104Z,1.52
2023-05-14T18:10:58.031Z,1.50
2023-05-14T18:13:25.284Z,1.90
2023-05-14T18:15:54.265Z,1.83
2023-05-14T18:18:23.553Z,1.75
2023-05-14T18:20:51.941Z,1.80
2023-05-14T18:23:19.392Z,1.65
2023-05-14T18:25:47.938Z,1.70
2023-05-14T18:28:15.732Z,1.63
2023-05-14T18:30:45.242Z,1.70
2023-05-14T18:33:12.940Z,1.35
2023-05-14T18:35:43.461Z,1.80
2023-05-14T18:38:11.872Z,1.70
2023-05-14T18:40:39.494Z,1.80
2023-05-14T18:43:06.963Z,1.58
2023-05-14T18:45:34.668Z,1.48
2023-05-14T18:48:02.387Z,1.63
2023-05-14T18:50:30.670Z,1.65
2023-05-14T18:52:57.976Z,1.70
2023-05-14T18:55:26.171Z,2.15
2023-05-14T18:57:53.761Z,1.77
2023-05-14T19:00:21.317Z,1.80
2023-05-14T19:02:48.651Z,1.70
2023-05-14T19:05:16.448Z,1.65
2023-05-14T19:07:43.911Z,1.90
2023-05-14T19:10:11.623Z,2.00
2023-05-14T19:12:38.925Z,1.80
2023-05-14T19:15:07.472Z,1.77
2023-05-14T19:17:34.912Z,2.00
2023-05-14T19:20:02.609Z,1.90
2023-05-14T19:22:29.875Z,1.85
2023-05-14T19:24:57.357Z,1.60
2023-05-14T19:27:24.680Z,1.67
2023-05-14T19:29:52.220Z,2.10
2023-05-14T19:32:19.505Z,2.00
2023-05-14T19:34:47.671Z,1.73
2023-05-14T19:37:15.945Z,2.00
2023-05-14T19:39:43.467Z,2.10
2023-05-14T19:42:10.714Z,1.60
2023-05-14T19:44:38.249Z,1.90
2023-05-14T19:47:06.039Z,2.00
2023-05-14T19:49:34.003Z,2.05
2023-05-14T19:52:01.297Z,1.60
2023-05-14T19:54:31.552Z,1.60
2023-05-14T19:56:59.332Z,1.63
2023-05-14T19:59:26.873Z,1.80
2023-05-14T20:01:55.751Z,1.67
2023-05-14T20:04:26.047Z,1.80
2023-05-14T20:06:53.451Z,1.92
2023-05-14T20:09:21.139Z,1.83
2023-05-14T20:11:48.446Z,1.80
2023-05-14T20:14:16.031Z,1.92
2023-05-14T20:16:43.597Z,1.95
2023-05-14T20:19:11.973Z,2.00
2023-05-14T20:21:39.423Z,1.60
2023-05-14T20:24:07.044Z,2.03
2023-05-14T20:26:34.684Z,1.98
2023-05-14T20:29:02.336Z,1.80
2023-05-14T20:31:29.638Z,1.83
2023-05-14T20:33:57.159Z,1.70
2023-05-14T20:36:24.495Z,1.90
2023-05-14T20:38:52.705Z,1.73
2023-05-14T20:41:19.946Z,1.70
2023-05-14T20:43:47.423Z,1.48
2023-05-14T20:46:15.160Z,1.80
2023-05-14T20:48:42.766Z,1.92
2023-05-14T20:51:10.025Z,1.58
2023-05-14T20:53:39.107Z,1.65
2023-05-14T20:56:06.829Z,2.00
2023-05-14T20:58:35.223Z,1.35
2023-05-14T21:01:03.670Z,1.45
2023-05-14T21:03:31.382Z,1.60
2023-05-14T21:06:00.507Z,1.77
2023-05-14T21:08:28.530Z,1.60
2023-05-14T21:10:55.793Z,1.80
2023-05-14T21:13:23.332Z,1.90
2023-05-14T21:15:50.665Z,1.55
2023-05-14T21:18:18.197Z,1.90
2023-05-14T21:20:45.583Z,1.70
2023-05-14T21:23:13.731Z,2.00
2023-05-14T21:25:41.125Z,1.50
2023-05-14T21:28:08.616Z,1.60
2023-05-14T21:30:35.851Z,1.63
2023-05-14T21:33:04.871Z,1.40
2023-05-14T21:35:32.224Z,1.65
2023-05-14T21:37:59.774Z,1.63
2023-05-14T21:40:27.064Z,1.60
2023-05-14T21:42:55.010Z,1.50
2023-05-14T21:45:23.637Z,1.65
2023-05-14T21:47:51.524Z,1.75
2023-05-14T21:50:18.826Z,1.70
2023-05-14T21:52:47.065Z,1.35
2023-05-14T21:55:14.364Z,1.60
2023-05-14T21:57:42.247Z,1.50
2023-05-14T22:00:12.837Z,1.88
2023-05-14T22:02:40.684Z,1.70
2023-05-14T22:05:08.155Z,1.45
2023-05-14T22:07:35.737Z,1.60
2023-05-14T22:10:03.152Z,1.52
2023-05-14T22:12:31.276Z,1.67
2023-05-14T22:14:58.472Z,1.50
2023-05-14T22:17:28.138Z,1.70
2023-05-14T22:19:55.623Z,1.83
2023-05-14T22:22:23.105Z,1.70
2023-05-14T22:24:50.338Z,2.00
2023-05-14T22:27:18.233Z,1.70
2023-05-14T22:29:45.668Z,1.40
2023-05-14T22:32:13.188Z,1.60
2023-05-14T22:34:40.436Z,1.70
2023-05-14T22:37:08.110Z,1.50
2023-05-14T22:39:35.682Z,1.80
2023-05-14T22:42:03.322Z,1.50
2023-05-14T22:44:30.732Z,1.73
2023-05-14T22:46:58.328Z,1.70
2023-05-14T22:49:25.619Z,1.52
2023-05-14T22:51:54.241Z,1.60
2023-05-14T22:54:21.547Z,1.60
2023-05-14T22:56:49.089Z,1.42
2023-05-14T22:59:16.381Z,1.60
2023-05-14T23:01:43.945Z,1.45
2023-05-14T23:04:11.433Z,1.50
2023-05-14T23:06:38.942Z,1.30
2023-05-14T23:09:06.169Z,1.55
2023-05-14T23:11:33.743Z,1.40
2023-05-14T23:14:01.191Z,1.80
2023-05-14T23:16:29.879Z,1.50
2023-05-14T23:18:57.328Z,1.60
2023-05-14T23:21:24.992Z,1.60
2023-05-14T23:23:52.266Z,1.60
2023-05-14T23:26:19.858Z,1.92
2023-05-14T23:28:47.386Z,1.38
2023-05-14T23:31:14.920Z,1.50
2023-05-14T23:33:44.462Z,1.65
2023-05-14T23:36:12.137Z,1.48
2023-05-14T23:38:40.127Z,1.50
2023-05-14T23:41:07.759Z,1.30
2023-05-14T23:43:35.052Z,1.35
2023-05-14T23:46:02.748Z,1.50
2023-05-14T23:48:30.640Z,1.40
2023-05-14T23:50:58.152Z,1.70
2023-05-14T23:53:25.544Z,1.60
2023-05-14T23:55:53.221Z,1.58
2023-05-14T23:58:20.711Z,1.27
